createdAt,value
2023-03-27T00:02:24.366Z,98941.44
2023-03-27T00:04:54.407Z,98952.50
2023-03-27T00:07:22.553Z,98950.38
2023-03-27T00:09:51.595Z,98962.19
2023-03-27T00:12:19.231Z,98972.56
2023-03-27T00:14:47.535Z,98980.47
2023-03-27T00:17:15.438Z,98989.00
2023-03-27T00:19:44.170Z,99000.34
2023-03-27T00:22:11.947Z,99003.00
2023-03-27T00:24:39.545Z,99006.78
2023-03-27T00:27:09.131Z,99022.06
2023-03-27T00:29:37.087Z,99019.69
2023-03-27T00:32:05.604Z,99028.09
2023-03-27T00:34:33.244Z,99036.97
2023-03-27T00:37:01.087Z,99042.16
2023-03-27T00:39:28.900Z,99041.19
2023-03-27T00:41:56.516Z,99042.97
2023-03-27T00:44:31.150Z,99049.41
2023-03-27T00:46:59.157Z,99060.56
2023-03-27T00:49:31.503Z,99065.03
2023-03-27T00:52:00.939Z,99079.09
2023-03-27T00:54:31.718Z,99068.72
2023-03-27T00:57:02.942Z,99067.81
2023-03-27T00:59:37.865Z,99079.63
2023-03-27T01:02:06.744Z,99080.88
2023-03-27T01:04:37.031Z,99090.34
2023-03-27T01:07:07.274Z,99097.13
2023-03-27T01:09:35.536Z,99094.84
2023-03-27T01:12:20.641Z,99103.91
2023-03-27T01:15:00.667Z,99105.75
2023-03-27T01:17:42.906Z,99106.81
2023-03-27T01:20:55.595Z,99108.94
2023-03-27T01:24:17.546Z,99124.16
2023-03-27T01:27:05.430Z,99124.28
2023-03-27T01:29:54.066Z,99131.47
2023-03-27T01:32:50.574Z,99141.22
2023-03-27T01:35:29.905Z,99145.91
2023-03-27T01:38:28.671Z,99146.13
2023-03-27T01:41:02.608Z,99155.03
2023-03-27T01:43:36.454Z,99159.38
2023-03-27T01:46:08.500Z,99173.50
2023-03-27T01:48:41.751Z,99179.34
2023-03-27T01:51:13.644Z,99174.78
2023-03-27T01:53:46.034Z,99190.56
2023-03-27T01:56:26.096Z,99181.50
2023-03-27T01:58:58.540Z,99200.28
2023-03-27T02:01:32.646Z,99193.59
2023-03-27T02:04:04.077Z,99208.16
2023-03-27T02:06:35.308Z,99204.78
2023-03-27T02:09:06.676Z,99210.31
2023-03-27T02:11:39.162Z,99213.53
2023-03-27T02:14:10.379Z,99223.25
2023-03-27T02:16:43.319Z,99235.00
2023-03-27T02:19:19.718Z,99238.75
2023-03-27T02:21:48.372Z,99252.19
2023-03-27T02:24:18.667Z,99256.22
2023-03-27T02:26:55.660Z,99259.16
2023-03-27T02:29:51.579Z,99270.34
2023-03-27T02:32:32.340Z,99272.34
2023-03-27T02:35:12.494Z,99288.47
2023-03-27T02:37:51.660Z,99299.53
2023-03-27T02:40:30.595Z,99300.16
2023-03-27T02:43:06.578Z,99313.69
2023-03-27T02:45:48.935Z,99320.75
2023-03-27T02:48:23.955Z,99331.91
2023-03-27T02:50:56.620Z,99330.81
2023-03-27T02:53:27.076Z,99335.63
2023-03-27T02:55:57.710Z,99338.38
2023-03-27T02:58:35.068Z,99356.69
2023-03-27T03:01:09.299Z,99349.81
2023-03-27T03:04:07.399Z,99369.13
2023-03-27T03:06:35.960Z,99376.28
2023-03-27T03:09:06.185Z,99376.25
2023-03-27T03:11:36.302Z,99378.19
2023-03-27T03:14:05.417Z,99384.22
2023-03-27T03:16:33.654Z,99384.78
2023-03-27T03:19:01.914Z,99395.66
2023-03-27T03:21:29.695Z,99409.53
2023-03-27T03:23:58.284Z,99415.25
2023-03-27T03:26:26.978Z,99422.97
2023-03-27T03:29:00.964Z,99429.69
2023-03-27T03:31:44.379Z,99438.13
2023-03-27T03:34:13.248Z,99438.31
2023-03-27T03:36:42.158Z,99453.69
2023-03-27T03:39:11.363Z,99463.09
2023-03-27T03:41:39.159Z,99471.66
2023-03-27T03:44:06.791Z,99464.69
2023-03-27T03:46:35.940Z,99477.53
2023-03-27T03:49:04.592Z,99478.00
2023-03-27T03:51:32.627Z,99482.16
2023-03-27T03:54:01.253Z,99480.44
2023-03-27T03:56:30.492Z,99491.41
2023-03-27T03:58:58.762Z,99498.31
2023-03-27T04:01:27.987Z,99507.28
2023-03-27T04:03:56.959Z,99505.19
2023-03-27T04:06:25.600Z,99504.25
2023-03-27T04:08:53.914Z,99518.03
2023-03-27T04:11:21.591Z,99523.56
2023-03-27T04:13:49.770Z,99527.13
2023-03-27T04:16:17.832Z,99530.56
2023-03-27T04:18:46.378Z,99539.69
2023-03-27T04:21:15.694Z,99544.97
2023-03-27T04:23:43.895Z,99549.00
2023-03-27T04:26:12.687Z,99552.81
2023-03-27T04:28:41.877Z,99552.72
2023-03-27T04:31:10.916Z,99564.84
2023-03-27T04:33:46.728Z,99574.63
2023-03-27T04:36:15.998Z,99573.59
2023-03-27T04:38:44.215Z,99577.59
2023-03-27T04:41:12.062Z,99581.03
2023-03-27T04:43:42.112Z,99589.34
2023-03-27T04:46:10.039Z,99602.03
2023-03-27T04:48:39.058Z,99609.91
2023-03-27T04:51:08.310Z,99616.16
2023-03-27T04:53:37.952Z,99615.81
2023-03-27T04:56:07.109Z,99626.00
2023-03-27T04:58:37.339Z,99616.78
2023-03-27T05:01:05.966Z,99625.94
2023-03-27T05:03:34.843Z,99639.44
2023-03-27T05:06:04.052Z,99633.78
2023-03-27T05:08:31.726Z,99638.75
2023-03-27T05:11:00.860Z,99651.44
2023-03-27T05:13:29.293Z,99653.13
2023-03-27T05:15:59.099Z,99665.25
2023-03-27T05:18:27.482Z,99665.00
2023-03-27T05:20:55.647Z,99684.00
2023-03-27T05:23:23.649Z,99701.56
2023-03-27T05:26:00.220Z,99698.72
2023-03-27T05:28:30.534Z,99701.22
2023-03-27T05:30:58.877Z,99696.94
2023-03-27T05:33:26.992Z,99719.97
2023-03-27T05:35:54.844Z,99719.84
2023-03-27T05:38:24.479Z,99724.13
2023-03-27T05:40:52.627Z,99722.59
2023-03-27T05:43:20.434Z,99725.91
2023-03-27T05:45:49.564Z,99740.41
2023-03-27T05:48:17.420Z,99748.34
2023-03-27T05:50:45.219Z,99754.97
2023-03-27T05:53:13.125Z,99760.22
2023-03-27T05:55:41.034Z,99759.47
2023-03-27T05:58:10.094Z,99765.38
2023-03-27T06:00:38.585Z,99767.00
2023-03-27T06:03:08.353Z,99763.22
2023-03-27T06:05:36.894Z,99781.38
2023-03-27T06:08:04.889Z,99787.88
2023-03-27T06:10:33.860Z,99781.81
2023-03-27T06:13:02.857Z,99793.91
2023-03-27T06:15:31.034Z,99798.94
2023-03-27T06:17:58.723Z,99813.19
2023-03-27T06:20:28.354Z,99815.75
2023-03-27T06:22:59.426Z,99821.19
2023-03-27T06:25:28.329Z,99834.91
2023-03-27T06:27:56.053Z,99845.00
2023-03-27T06:30:25.727Z,99844.25
2023-03-27T06:32:57.448Z,99849.59
2023-03-27T06:35:27.591Z,99850.69
2023-03-27T06:37:56.745Z,99857.22
2023-03-27T06:40:27.846Z,99870.34
2023-03-27T06:42:58.424Z,99868.63
2023-03-27T06:45:28.339Z,99871.28
2023-03-27T06:48:15.301Z,99876.94
2023-03-27T06:50:49.648Z,99887.06
2023-03-27T06:55:49.198Z,99898.13
2023-03-27T06:58:18.697Z,99910.97
2023-03-27T07:00:49.113Z,99911.25
2023-03-27T07:03:18.008Z,99914.63
2023-03-27T07:05:48.881Z,99913.28
2023-03-27T07:08:23.216Z,99919.28
2023-03-27T07:11:07.452Z,99926.38
2023-03-27T07:13:39.433Z,99931.53
2023-03-27T07:16:08.262Z,99934.38
2023-03-27T07:18:36.083Z,99927.66
2023-03-27T07:21:05.946Z,99940.38
2023-03-27T07:23:33.566Z,99954.03
2023-03-27T07:26:02.128Z,99959.03
2023-03-27T07:28:29.757Z,99970.19
2023-03-27T07:30:57.551Z,99984.63
2023-03-27T07:33:25.441Z,99986.88
2023-03-27T07:35:53.404Z,99981.91
2023-03-27T07:38:22.520Z,99988.69
2023-03-27T07:40:50.438Z,99993.53
2023-03-27T07:43:18.284Z,99986.25
2023-03-27T07:45:46.064Z,100003.44
2023-03-27T07:48:16.147Z,99994.44
2023-03-27T07:50:44.903Z,99995.72
2023-03-27T07:53:32.879Z,99998.09
2023-03-27T07:56:02.769Z,100002.91
2023-03-27T07:58:30.470Z,100007.53
2023-03-27T08:01:02.209Z,100007.03
2023-03-27T08:03:31.461Z,100010.09
2023-03-27T08:06:01.195Z,100013.91
2023-03-27T08:08:29.023Z,100012.59
2023-03-27T08:10:57.904Z,100008.34
2023-03-27T08:13:26.972Z,100010.75
2023-03-27T08:16:03.473Z,100019.91
2023-03-27T08:18:31.117Z,100011.97
2023-03-27T08:20:59.123Z,100026.50
2023-03-27T08:23:27.321Z,100021.69
2023-03-27T08:26:00.448Z,100026.91
2023-03-27T08:28:29.936Z,100039.19
2023-03-27T08:31:02.544Z,100037.69
2023-03-27T08:33:30.815Z,100043.34
2023-03-27T08:35:59.243Z,100056.03
2023-03-27T08:38:28.617Z,100060.50
2023-03-27T08:40:59.149Z,100059.88
2023-03-27T08:43:31.607Z,100057.91
2023-03-27T08:46:03.283Z,100062.47
2023-03-27T08:48:36.357Z,100064.00
2023-03-27T08:51:08.449Z,100063.56
2023-03-27T08:53:42.889Z,100055.84
2023-03-27T08:56:15.043Z,100058.13
2023-03-27T08:58:45.345Z,100045.88
2023-03-27T09:01:20.276Z,100043.41
2023-03-27T09:03:57.252Z,100057.75
2023-03-27T09:06:27.788Z,100056.34
2023-03-27T09:09:04.687Z,100062.97
2023-03-27T09:11:41.842Z,100071.84
2023-03-27T09:14:19.282Z,100069.66
2023-03-27T09:16:51.067Z,100065.50
2023-03-27T09:19:29.076Z,100065.50
2023-03-27T09:22:02.611Z,100067.84
2023-03-27T09:24:33.869Z,100064.91
2023-03-27T09:27:16.305Z,100072.28
2023-03-27T09:29:46.135Z,100063.09
2023-03-27T09:32:16.766Z,100059.09
2023-03-27T09:34:45.088Z,100057.03
2023-03-27T09:37:17.460Z,100052.94
2023-03-27T09:39:49.303Z,100050.75
2023-03-27T09:42:21.967Z,100051.41
2023-03-27T09:44:55.844Z,100057.91
2023-03-27T09:47:32.273Z,100053.97
2023-03-27T09:50:16.634Z,100060.19
2023-03-27T09:52:44.309Z,100077.25
2023-03-27T09:55:25.231Z,100082.50
2023-03-27T09:57:58.853Z,100077.47
2023-03-27T10:00:31.551Z,100079.00
2023-03-27T10:03:05.719Z,100066.69
2023-03-27T10:05:33.724Z,100072.06
2023-03-27T10:08:02.491Z,100074.53
2023-03-27T10:10:32.656Z,100068.06
2023-03-27T10:13:03.260Z,100051.16
2023-03-27T10:15:38.673Z,100065.06
2023-03-27T10:18:09.171Z,100068.47
2023-03-27T10:20:37.400Z,100071.28
2023-03-27T10:23:09.702Z,100077.00
2023-03-27T10:25:39.102Z,100076.03
2023-03-27T10:28:16.694Z,100069.03
2023-03-27T10:30:46.014Z,100063.25
2023-03-27T10:33:14.101Z,100059.25
2023-03-27T10:35:44.919Z,100060.84
2023-03-27T10:38:15.268Z,100054.13
2023-03-27T10:40:48.838Z,100059.38
2023-03-27T10:43:25.607Z,100068.16
2023-03-27T10:45:57.369Z,100073.09
2023-03-27T10:48:38.960Z,100070.53
2023-03-27T10:51:09.342Z,100088.44
2023-03-27T10:53:44.344Z,100073.13
2023-03-27T10:56:18.171Z,100077.16
2023-03-27T10:58:50.356Z,100065.41
2023-03-27T11:01:26.401Z,100076.72
2023-03-27T11:04:00.680Z,100087.50
2023-03-27T11:06:34.381Z,100099.28
2023-03-27T11:09:06.466Z,100105.00
2023-03-27T11:11:38.420Z,100114.75
2023-03-27T11:14:14.180Z,100121.59
2023-03-27T11:16:48.716Z,100152.31
2023-03-27T11:19:32.117Z,100157.09
2023-03-27T11:22:04.692Z,100171.88
2023-03-27T11:24:38.340Z,100176.34
2023-03-27T11:27:13.924Z,100180.44
2023-03-27T11:29:51.168Z,100184.28
2023-03-27T11:32:29.526Z,100175.53
2023-03-27T11:35:04.231Z,100164.63
2023-03-27T11:37:41.426Z,100154.38
2023-03-27T11:40:17.020Z,100162.75
2023-03-27T11:42:46.516Z,100154.44
2023-03-27T11:45:16.746Z,100147.56
2023-03-27T11:48:11.117Z,100146.00
2023-03-27T11:50:48.483Z,100150.53
2023-03-27T11:53:39.271Z,100140.94
2023-03-27T11:56:32.445Z,100139.28
2023-03-27T11:59:14.499Z,100138.56
2023-03-27T12:01:48.307Z,100145.22
2023-03-27T12:04:36.654Z,100134.53
2023-03-27T12:07:15.383Z,100134.66
2023-03-27T12:10:05.112Z,100135.63
2023-03-27T12:12:55.368Z,100129.84
2023-03-27T12:15:54.018Z,100131.19
2023-03-27T12:18:36.094Z,100137.66
2023-03-27T12:21:17.901Z,100138.75
2023-03-27T12:24:16.188Z,100150.28
2023-03-27T12:26:57.858Z,100164.88
2023-03-27T12:29:45.827Z,100202.28
2023-03-27T12:32:26.616Z,100219.78
2023-03-27T12:34:57.182Z,100218.16
2023-03-27T12:37:30.105Z,100227.28
2023-03-27T12:40:00.139Z,100213.16
2023-03-27T12:42:44.421Z,100213.91
2023-03-27T12:45:18.277Z,100200.53
2023-03-27T12:48:04.780Z,100190.84
2023-03-27T12:50:35.588Z,100187.47
2023-03-27T12:53:06.437Z,100184.03
2023-03-27T12:55:35.823Z,100188.56
2023-03-27T12:58:05.899Z,100191.47
2023-03-27T13:00:34.482Z,100183.41
2023-03-27T13:03:28.455Z,100186.28
2023-03-27T13:06:14.262Z,100175.16
2023-03-27T13:08:55.447Z,100168.44
2023-03-27T13:11:37.378Z,100163.84
2023-03-27T13:14:33.326Z,100168.59
2023-03-27T13:17:30.327Z,100176.25
2023-03-27T13:20:09.848Z,100181.22
2023-03-27T13:23:01.983Z,100186.81
2023-03-27T13:25:41.119Z,100174.47
2023-03-27T13:28:28.312Z,100168.63
2023-03-27T13:30:58.367Z,100166.28
2023-03-27T13:33:39.813Z,100163.88
2023-03-27T13:36:12.649Z,100165.47
2023-03-27T13:39:15.312Z,100170.94
2023-03-27T13:41:58.904Z,100175.44
2023-03-27T13:44:35.821Z,100160.28
2023-03-27T13:47:24.052Z,100175.13
2023-03-27T13:50:17.893Z,100165.56
2023-03-27T13:53:22.432Z,100163.31
2023-03-27T13:56:07.233Z,100172.63
2023-03-27T13:58:56.700Z,100167.69
2023-03-27T14:01:48.383Z,100157.03
2023-03-27T14:04:30.548Z,100160.66
2023-03-27T14:07:41.287Z,100167.34
2023-03-27T14:10:28.716Z,100173.50
2023-03-27T14:13:15.633Z,100172.63
2023-03-27T14:16:16.223Z,100176.50
2023-03-27T14:19:21.780Z,100175.53
2023-03-27T14:21:54.000Z,100167.81
2023-03-27T14:24:30.412Z,100176.53
2023-03-27T14:26:59.564Z,100183.44
2023-03-27T14:29:28.904Z,100192.22
2023-03-27T14:32:04.928Z,100190.28
2023-03-27T14:34:47.366Z,100195.72
2023-03-27T14:37:28.966Z,100188.56
2023-03-27T14:39:57.335Z,100197.13
2023-03-27T14:42:31.279Z,100195.34
2023-03-27T14:45:11.681Z,100193.59
2023-03-27T14:47:40.805Z,100186.34
2023-03-27T14:50:14.756Z,100181.25
2023-03-27T14:52:43.898Z,100181.03
2023-03-27T14:55:14.387Z,100186.50
2023-03-27T14:57:42.287Z,100181.41
2023-03-27T15:00:16.565Z,100178.66
2023-03-27T15:02:48.193Z,100181.41
2023-03-27T15:05:18.467Z,100185.50
2023-03-27T15:07:49.082Z,100180.16
2023-03-27T15:10:22.537Z,100171.75
2023-03-27T15:12:50.525Z,100179.53
2023-03-27T15:15:23.720Z,100178.72
2023-03-27T15:17:55.908Z,100170.78
2023-03-27T15:20:28.092Z,100174.59
2023-03-27T15:23:01.363Z,100162.75
2023-03-27T15:25:36.986Z,100171.09
2023-03-27T15:28:10.361Z,100175.50
2023-03-27T15:30:43.616Z,100173.59
2023-03-27T15:33:20.525Z,100164.78
2023-03-27T15:35:52.716Z,100169.75
2023-03-27T15:38:28.979Z,100169.56
2023-03-27T15:41:03.090Z,100171.28
2023-03-27T15:43:31.897Z,100167.34
2023-03-27T15:46:14.105Z,100184.56
2023-03-27T15:48:45.566Z,100186.69
2023-03-27T15:51:15.293Z,100190.47
2023-03-27T15:53:45.147Z,100192.84
2023-03-27T15:56:22.687Z,100194.25
2023-03-27T15:58:54.248Z,100196.31
2023-03-27T16:01:24.721Z,100200.63
2023-03-27T16:03:56.094Z,100212.16
2023-03-27T16:06:30.712Z,100213.91
2023-03-27T16:08:59.053Z,100214.75
2023-03-27T16:11:39.708Z,100214.50
2023-03-27T16:14:20.897Z,100223.47
2023-03-27T16:16:49.682Z,100219.94
2023-03-27T16:19:18.831Z,100220.66
2023-03-27T16:21:55.418Z,100213.31
2023-03-27T16:24:23.110Z,100214.03
2023-03-27T16:26:52.621Z,100225.16
2023-03-27T16:29:22.101Z,100222.72
2023-03-27T16:31:49.793Z,100235.88
2023-03-27T16:34:22.207Z,100243.50
2023-03-27T16:36:51.386Z,100248.50
2023-03-27T16:39:19.538Z,100258.38
2023-03-27T16:41:47.743Z,100287.00
2023-03-27T16:44:15.728Z,100300.59
2023-03-27T16:46:43.482Z,100307.16
2023-03-27T16:49:12.750Z,100299.72
2023-03-27T16:51:41.841Z,100302.38
2023-03-27T16:54:09.528Z,100281.47
2023-03-27T16:56:37.198Z,100291.59
2023-03-27T16:59:05.745Z,100289.91
2023-03-27T17:01:33.513Z,100292.59
2023-03-27T17:04:01.190Z,100300.50
2023-03-27T17:06:28.854Z,100304.94
2023-03-27T17:08:57.913Z,100310.19
2023-03-27T17:11:25.628Z,100317.06
2023-03-27T17:13:53.773Z,100317.63
2023-03-27T17:16:21.643Z,100333.31
2023-03-27T17:18:49.357Z,100333.75
2023-03-27T17:21:17.403Z,100335.00
2023-03-27T17:23:48.363Z,100342.13
2023-03-27T17:26:24.745Z,100351.19
2023-03-27T17:28:52.498Z,100345.59
2023-03-27T17:31:20.814Z,100350.44
2023-03-27T17:33:48.884Z,100358.41
2023-03-27T17:36:23.892Z,100375.53
2023-03-27T17:38:57.617Z,100400.09
2023-03-27T17:41:28.804Z,100405.69
2023-03-27T17:43:56.525Z,100431.50
2023-03-27T17:46:24.351Z,100438.00
2023-03-27T17:48:52.387Z,100436.94
2023-03-27T17:51:21.577Z,100444.44
2023-03-27T17:53:49.365Z,100441.16
2023-03-27T17:56:17.162Z,100447.91
2023-03-27T17:58:50.028Z,100458.91
2023-03-27T18:01:19.488Z,100447.09
2023-03-27T18:03:47.839Z,100442.09
2023-03-27T18:06:17.683Z,100451.88
2023-03-27T18:08:46.228Z,100456.31
2023-03-27T18:11:16.412Z,100466.03
2023-03-27T18:13:44.872Z,100483.13
2023-03-27T18:16:14.097Z,100480.94
2023-03-27T18:18:41.859Z,100488.38
2023-03-27T18:21:09.905Z,100499.00
2023-03-27T18:23:45.724Z,100506.13
2023-03-27T18:26:15.500Z,100477.22
2023-03-27T18:28:43.487Z,100459.50
2023-03-27T18:31:12.840Z,100467.00
2023-03-27T18:33:41.920Z,100470.91
2023-03-27T18:36:11.977Z,100469.59
2023-03-27T18:38:40.904Z,100472.16
2023-03-27T18:41:09.627Z,100473.59
2023-03-27T18:43:37.553Z,100471.91
2023-03-27T18:46:06.900Z,100484.13
2023-03-27T18:48:35.716Z,100485.06
2023-03-27T18:51:06.895Z,100488.34
2023-03-27T18:53:34.803Z,100489.66
2023-03-27T18:56:03.314Z,100485.53
2023-03-27T18:58:31.297Z,100490.31
2023-03-27T19:01:00.124Z,100490.41
2023-03-27T19:03:30.560Z,100495.22
2023-03-27T19:06:02.101Z,100493.88
2023-03-27T19:08:31.538Z,100501.53
2023-03-27T19:10:59.558Z,100493.88
2023-03-27T19:13:27.617Z,100501.78
2023-03-27T19:15:55.444Z,100500.16
2023-03-27T19:18:25.550Z,100508.28
2023-03-27T19:20:53.361Z,100506.88
2023-03-27T19:23:21.223Z,100508.91
2023-03-27T19:25:51.204Z,100508.50
2023-03-27T19:28:19.124Z,100508.00
2023-03-27T19:30:47.090Z,100509.19
2023-03-27T19:33:15.048Z,100513.72
2023-03-27T19:35:43.064Z,100518.81
2023-03-27T19:38:11.309Z,100522.59
2023-03-27T19:40:39.308Z,100523.53
2023-03-27T19:43:08.740Z,100526.09
2023-03-27T19:45:36.456Z,100529.03
2023-03-27T19:48:04.422Z,100532.50
2023-03-27T19:50:32.314Z,100534.06
2023-03-27T19:53:08.168Z,100544.09
2023-03-27T19:55:36.791Z,100543.16
2023-03-27T19:58:04.659Z,100547.69
2023-03-27T20:00:35.157Z,100543.28
2023-03-27T20:03:03.131Z,100554.03
2023-03-27T20:05:31.220Z,100554.84
2023-03-27T20:07:58.885Z,100555.16
2023-03-27T20:10:27.077Z,100558.59
2023-03-27T20:12:54.767Z,100566.25
2023-03-27T20:15:22.589Z,100571.22
2023-03-27T20:17:51.964Z,100572.38
2023-03-27T20:20:19.965Z,100577.78
2023-03-27T20:22:57.130Z,100575.78
2023-03-27T20:25:27.944Z,100575.94
2023-03-27T20:27:55.939Z,100571.88
2023-03-27T20:30:23.682Z,100577.34
2023-03-27T20:32:52.906Z,100574.13
2023-03-27T20:35:24.744Z,100581.03
2023-03-27T20:37:57.509Z,100580.00
2023-03-27T20:40:26.184Z,100574.97
2023-03-27T20:43:02.884Z,100586.44
2023-03-27T20:45:30.781Z,100587.28
2023-03-27T20:48:04.470Z,100591.88
2023-03-27T20:50:35.898Z,100582.97
2023-03-27T20:53:04.976Z,100588.75
2023-03-27T20:55:37.338Z,100583.81
2023-03-27T20:58:09.507Z,100584.28
2023-03-27T21:00:37.894Z,100581.59
2023-03-27T21:03:07.181Z,100584.84
2023-03-27T21:05:38.170Z,100584.38
2023-03-27T21:08:07.261Z,100580.75
2023-03-27T21:10:34.961Z,100589.88
2023-03-27T21:13:03.586Z,100579.81
2023-03-27T21:15:31.924Z,100586.34
2023-03-27T21:17:59.943Z,100578.91
2023-03-27T21:20:34.556Z,100579.91
2023-03-27T21:23:03.120Z,100589.16
2023-03-27T21:25:31.067Z,100591.03
2023-03-27T21:27:58.760Z,100596.06
2023-03-27T21:30:46.999Z,100594.91
2023-03-27T21:33:15.655Z,100599.41
2023-03-27T21:35:46.954Z,100587.47
2023-03-27T21:38:16.397Z,100590.53
2023-03-27T21:40:44.432Z,100592.66
2023-03-27T21:43:13.110Z,100597.53
2023-03-27T21:45:41.061Z,100606.09
2023-03-27T21:48:10.932Z,100599.75
2023-03-27T21:50:40.797Z,100612.13
2023-03-27T21:53:09.985Z,100611.47
2023-03-27T21:55:38.519Z,100610.97
2023-03-27T21:58:06.914Z,100612.03
2023-03-27T22:00:35.037Z,100622.34
2023-03-27T22:03:02.930Z,100620.84
2023-03-27T22:05:30.709Z,100623.00
2023-03-27T22:07:58.652Z,100620.97
2023-03-27T22:10:27.741Z,100634.09
2023-03-27T22:12:55.502Z,100633.97
2023-03-27T22:15:23.341Z,100635.25
2023-03-27T22:17:51.098Z,100635.75
2023-03-27T22:20:18.975Z,100633.13
2023-03-27T22:22:48.388Z,100640.78
2023-03-27T22:25:16.529Z,100645.97
2023-03-27T22:27:46.388Z,100641.31
2023-03-27T22:30:14.872Z,100644.13
2023-03-27T22:32:43.308Z,100652.31
2023-03-27T22:35:11.393Z,100655.03
2023-03-27T22:37:40.345Z,100658.47
2023-03-27T22:40:09.572Z,100671.56
2023-03-27T22:42:37.507Z,100666.72
2023-03-27T22:45:07.238Z,100670.81
2023-03-27T22:47:35.796Z,100676.28
2023-03-27T22:50:04.885Z,100676.72
2023-03-27T22:52:32.643Z,100676.63
2023-03-27T22:55:00.325Z,100680.06
2023-03-27T22:57:28.212Z,100680.53
2023-03-27T22:59:55.970Z,100676.44
2023-03-27T23:02:25.099Z,100686.31
2023-03-27T23:04:52.812Z,100687.44
2023-03-27T23:07:20.450Z,100687.72
2023-03-27T23:09:48.170Z,100691.88
2023-03-27T23:12:16.054Z,100687.00
2023-03-27T23:14:43.970Z,100692.28
2023-03-27T23:17:11.713Z,100680.31
2023-03-27T23:19:40.875Z,100693.69
2023-03-27T23:22:08.701Z,100696.16
2023-03-27T23:24:36.396Z,100696.88
2023-03-27T23:27:04.926Z,100700.19
2023-03-27T23:29:32.689Z,100701.69
2023-03-27T23:32:00.465Z,100698.22
2023-03-27T23:34:28.432Z,100705.53
2023-03-27T23:36:57.487Z,100704.78
2023-03-27T23:39:25.288Z,100701.59
2023-03-27T23:41:52.863Z,100708.25
2023-03-27T23:44:20.530Z,100709.84
2023-03-27T23:46:48.144Z,100714.50
2023-03-27T23:49:15.970Z,100717.94
2023-03-27T23:51:43.560Z,100713.38
2023-03-27T23:54:12.508Z,100712.88
2023-03-27T23:56:40.244Z,100718.34
2023-03-27T23:59:07.928Z,100721.22
